sensor_id;sensor_type;location;lat;lon;timestamp;temperature;humidity
49242;DHT22;35079;52.704;13.814;2022-07-11T00:01:49;12.70;99.90
49242;DHT22;35079;52.704;13.814;2022-07-11T00:04:15;12.60;99.90
49242;DHT22;35079;52.704;13.814;2022-07-11T00:06:41;12.60;99.90
49242;DHT22;35079;52.704;13.814;2022-07-11T00:09:06;12.70;99.90
49242;DHT22;35079;52.704;13.814;2022-07-11T00:11:32;12.70;99.90
49242;DHT22;35079;52.704;13.814;2022-07-11T00:13:58;12.70;99.90
49242;DHT22;35079;52.704;13.814;2022-07-11T00:16:24;12.60;99.90
49242;DHT22;35079;52.704;13.814;2022-07-11T00:18:49;12.80;99.90
49242;DHT22;35079;52.704;13.814;2022-07-11T00:21:15;12.70;99.90
49242;DHT22;35079;52.704;13.814;2022-07-11T00:23:40;12.70;99.90
49242;DHT22;35079;52.704;13.814;2022-07-11T00:26:06;12.50;99.90
49242;DHT22;35079;52.704;13.814;2022-07-11T00:28:32;12.60;99.90
49242;DHT22;35079;52.704;13.814;2022-07-11T00:30:57;12.60;99.90
49242;DHT22;35079;52.704;13.814;2022-07-11T00:33:24;12.70;99.90
49242;DHT22;35079;52.704;13.814;2022-07-11T00:35:50;12.70;99.90
49242;DHT22;35079;52.704;13.814;2022-07-11T00:38:15;12.80;99.90
49242;DHT22;35079;52.704;13.814;2022-07-11T00:40:41;12.70;99.90
49242;DHT22;35079;52.704;13.814;2022-07-11T00:43:07;12.70;99.90
49242;DHT22;35079;52.704;13.814;2022-07-11T00:45:32;12.60;99.90
49242;DHT22;35079;52.704;13.814;2022-07-11T00:47:58;12.50;99.90
49242;DHT22;35079;52.704;13.814;2022-07-11T00:50:27;12.60;99.90
49242;DHT22;35079;52.704;13.814;2022-07-11T00:52:55;12.60;99.90
49242;DHT22;35079;52.704;13.814;2022-07-11T00:55:21;12.60;99.90
49242;DHT22;35079;52.704;13.814;2022-07-11T00:57:47;12.60;99.90
49242;DHT22;35079;52.704;13.814;2022-07-11T01:00:13;12.50;99.90
49242;DHT22;35079;52.704;13.814;2022-07-11T01:02:39;12.60;99.90
49242;DHT22;35079;52.704;13.814;2022-07-11T01:05:05;12.50;99.90
49242;DHT22;35079;52.704;13.814;2022-07-11T01:07:32;12.50;99.90
49242;DHT22;35079;52.704;13.814;2022-07-11T01:09:58;12.70;99.90
49242;DHT22;35079;52.704;13.814;2022-07-11T01:12:30;12.50;99.90
49242;DHT22;35079;52.704;13.814;2022-07-11T01:14:56;12.50;99.90
49242;DHT22;35079;52.704;13.814;2022-07-11T01:17:24;12.60;99.90
49242;DHT22;35079;52.704;13.814;2022-07-11T01:19:50;12.70;99.90
49242;DHT22;35079;52.704;13.814;2022-07-11T01:22:18;12.60;99.90
49242;DHT22;35079;52.704;13.814;2022-07-11T01:24:46;12.50;99.90
49242;DHT22;35079;52.704;13.814;2022-07-11T01:27:12;12.50;99.90
49242;DHT22;35079;52.704;13.814;2022-07-11T01:29:39;12.50;99.90
49242;DHT22;35079;52.704;13.814;2022-07-11T01:32:06;12.60;99.90
49242;DHT22;35079;52.704;13.814;2022-07-11T01:34:32;12.50;99.90
49242;DHT22;35079;52.704;13.814;2022-07-11T01:36:57;12.70;99.90
49242;DHT22;35079;52.704;13.814;2022-07-11T01:39:23;12.70;99.90
49242;DHT22;35079;52.704;13.814;2022-07-11T01:41:48;12.60;99.90
49242;DHT22;35079;52.704;13.814;2022-07-11T01:44:14;12.60;99.90
49242;DHT22;35079;52.704;13.814;2022-07-11T01:46:39;12.80;99.90
49242;DHT22;35079;52.704;13.814;2022-07-11T01:49:05;12.70;99.90
49242;DHT22;35079;52.704;13.814;2022-07-11T01:51:31;12.70;99.90
49242;DHT22;35079;52.704;13.814;2022-07-11T01:53:57;12.80;99.90
49242;DHT22;35079;52.704;13.814;2022-07-11T01:56:23;12.70;99.90
49242;DHT22;35079;52.704;13.814;2022-07-11T01:58:49;12.80;99.90
49242;DHT22;35079;52.704;13.814;2022-07-11T02:01:15;12.80;99.90
49242;DHT22;35079;52.704;13.814;2022-07-11T02:03:41;12.90;99.90
49242;DHT22;35079;52.704;13.814;2022-07-11T02:06:07;13.00;99.90
49242;DHT22;35079;52.704;13.814;2022-07-11T02:08:32;12.80;99.90
49242;DHT22;35079;52.704;13.814;2022-07-11T02:10:58;12.80;99.90
49242;DHT22;35079;52.704;13.814;2022-07-11T02:13:24;12.80;99.90
49242;DHT22;35079;52.704;13.814;2022-07-11T02:15:50;13.00;99.90
49242;DHT22;35079;52.704;13.814;2022-07-11T02:18:17;12.70;99.90
49242;DHT22;35079;52.704;13.814;2022-07-11T02:20:43;12.90;99.90
49242;DHT22;35079;52.704;13.814;2022-07-11T02:23:11;12.90;99.90
49242;DHT22;35079;52.704;13.814;2022-07-11T02:25:38;12.80;99.90
49242;DHT22;35079;52.704;13.814;2022-07-11T02:28:07;12.90;99.90
49242;DHT22;35079;52.704;13.814;2022-07-11T02:30:37;12.90;99.90
49242;DHT22;35079;52.704;13.814;2022-07-11T02:33:04;13.10;99.90
49242;DHT22;35079;52.704;13.814;2022-07-11T02:35:30;13.10;99.90
49242;DHT22;35079;52.704;13.814;2022-07-11T02:37:56;13.00;99.90
49242;DHT22;35079;52.704;13.814;2022-07-11T02:40:21;13.20;99.90
49242;DHT22;35079;52.704;13.814;2022-07-11T02:42:47;13.00;99.90
49242;DHT22;35079;52.704;13.814;2022-07-11T02:45:13;13.10;99.90
49242;DHT22;35079;52.704;13.814;2022-07-11T02:47:39;13.10;99.90
49242;DHT22;35079;52.704;13.814;2022-07-11T02:50:10;13.10;99.90
49242;DHT22;35079;52.704;13.814;2022-07-11T02:52:37;13.10;99.90
49242;DHT22;35079;52.704;13.814;2022-07-11T02:55:04;13.10;99.90
49242;DHT22;35079;52.704;13.814;2022-07-11T02:57:30;12.90;99.90
49242;DHT22;35079;52.704;13.814;2022-07-11T02:59:55;13.00;99.90
49242;DHT22;35079;52.704;13.814;2022-07-11T03:02:21;13.00;99.90
49242;DHT22;35079;52.704;13.814;2022-07-11T03:04:47;13.00;99.90
49242;DHT22;35079;52.704;13.814;2022-07-11T03:07:12;13.00;99.90
49242;DHT22;35079;52.704;13.814;2022-07-11T03:09:38;12.90;99.90
49242;DHT22;35079;52.704;13.814;2022-07-11T03:12:04;13.00;99.90
49242;DHT22;35079;52.704;13.814;2022-07-11T03:14:30;12.80;99.90
49242;DHT22;35079;52.704;13.814;2022-07-11T03:16:55;12.90;99.90
49242;DHT22;35079;52.704;13.814;2022-07-11T03:19:21;12.90;99.90
49242;DHT22;35079;52.704;13.814;2022-07-11T03:21:47;13.10;99.90
49242;DHT22;35079;52.704;13.814;2022-07-11T03:24:12;13.00;99.90
49242;DHT22;35079;52.704;13.814;2022-07-11T03:26:38;13.00;99.90
49242;DHT22;35079;52.704;13.814;2022-07-11T03:29:04;12.90;99.90
49242;DHT22;35079;52.704;13.814;2022-07-11T03:31:30;13.00;99.90
49242;DHT22;35079;52.704;13.814;2022-07-11T03:33:55;12.90;99.90
49242;DHT22;35079;52.704;13.814;2022-07-11T03:36:21;13.00;99.90
49242;DHT22;35079;52.704;13.814;2022-07-11T03:38:47;12.90;99.90
49242;DHT22;35079;52.704;13.814;2022-07-11T03:41:12;13.00;99.90
49242;DHT22;35079;52.704;13.814;2022-07-11T03:43:38;13.00;99.90
49242;DHT22;35079;52.704;13.814;2022-07-11T03:46:04;13.10;99.90
49242;DHT22;35079;52.704;13.814;2022-07-11T03:48:31;12.90;99.90
49242;DHT22;35079;52.704;13.814;2022-07-11T03:50:57;13.10;99.90
49242;DHT22;35079;52.704;13.814;2022-07-11T03:53:23;13.00;99.90
49242;DHT22;35079;52.704;13.814;2022-07-11T03:55:48;13.10;99.90
49242;DHT22;35079;52.704;13.814;2022-07-11T03:58:17;13.00;99.90
49242;DHT22;35079;52.704;13.814;2022-07-11T04:00:42;13.00;99.90
49242;DHT22;35079;52.704;13.814;2022-07-11T04:03:08;13.20;99.90
49242;DHT22;35079;52.704;13.814;2022-07-11T04:05:34;13.20;99.90
49242;DHT22;35079;52.704;13.814;2022-07-11T04:07:59;13.10;99.90
49242;DHT22;35079;52.704;13.814;2022-07-11T04:10:25;13.20;99.90
49242;DHT22;35079;52.704;13.814;2022-07-11T04:12:50;13.30;99.90
49242;DHT22;35079;52.704;13.814;2022-07-11T04:15:16;13.30;99.90
49242;DHT22;35079;52.704;13.814;2022-07-11T04:17:42;13.20;99.90
49242;DHT22;35079;52.704;13.814;2022-07-11T04:20:08;13.20;99.90
49242;DHT22;35079;52.704;13.814;2022-07-11T04:22:33;13.20;99.90
49242;DHT22;35079;52.704;13.814;2022-07-11T04:24:59;13.30;99.90
49242;DHT22;35079;52.704;13.814;2022-07-11T04:27:25;13.30;99.90
49242;DHT22;35079;52.704;13.814;2022-07-11T04:29:50;13.40;99.90
49242;DHT22;35079;52.704;13.814;2022-07-11T04:32:17;13.40;99.90
49242;DHT22;35079;52.704;13.814;2022-07-11T04:34:42;13.50;99.90
49242;DHT22;35079;52.704;13.814;2022-07-11T04:37:08;13.40;99.90
49242;DHT22;35079;52.704;13.814;2022-07-11T04:39:33;13.50;99.90
49242;DHT22;35079;52.704;13.814;2022-07-11T04:41:59;13.40;99.90
49242;DHT22;35079;52.704;13.814;2022-07-11T04:44:27;13.20;99.90
49242;DHT22;35079;52.704;13.814;2022-07-11T04:46:52;13.30;99.90
49242;DHT22;35079;52.704;13.814;2022-07-11T04:49:18;13.20;99.90
49242;DHT22;35079;52.704;13.814;2022-07-11T04:51:44;13.40;99.90
49242;DHT22;35079;52.704;13.814;2022-07-11T04:54:10;13.50;99.90
49242;DHT22;35079;52.704;13.814;2022-07-11T04:56:36;13.60;99.90
49242;DHT22;35079;52.704;13.814;2022-07-11T04:59:03;13.60;99.90
49242;DHT22;35079;52.704;13.814;2022-07-11T05:01:29;13.80;99.90
49242;DHT22;35079;52.704;13.814;2022-07-11T05:03:55;13.90;99.90
49242;DHT22;35079;52.704;13.814;2022-07-11T05:06:21;14.10;99.90
49242;DHT22;35079;52.704;13.814;2022-07-11T05:08:47;14.20;99.90
49242;DHT22;35079;52.704;13.814;2022-07-11T05:11:13;14.10;99.90
49242;DHT22;35079;52.704;13.814;2022-07-11T05:13:39;14.00;99.90
49242;DHT22;35079;52.704;13.814;2022-07-11T05:16:05;14.00;99.90
49242;DHT22;35079;52.704;13.814;2022-07-11T05:18:31;13.70;99.90
49242;DHT22;35079;52.704;13.814;2022-07-11T05:20:57;13.70;99.90
49242;DHT22;35079;52.704;13.814;2022-07-11T05:23:23;13.60;99.90
49242;DHT22;35079;52.704;13.814;2022-07-11T05:25:48;13.70;99.90
49242;DHT22;35079;52.704;13.814;2022-07-11T05:28:14;13.70;99.90
49242;DHT22;35079;52.704;13.814;2022-07-11T05:30:39;13.90;99.90
49242;DHT22;35079;52.704;13.814;2022-07-11T05:33:05;13.90;99.90
49242;DHT22;35079;52.704;13.814;2022-07-11T05:35:31;14.00;99.90
49242;DHT22;35079;52.704;13.814;2022-07-11T05:38:00;14.10;99.90
49242;DHT22;35079;52.704;13.814;2022-07-11T05:40:38;14.20;99.90
49242;DHT22;35079;52.704;13.814;2022-07-11T05:43:10;14.30;99.90
49242;DHT22;35079;52.704;13.814;2022-07-11T05:45:36;14.40;99.90
49242;DHT22;35079;52.704;13.814;2022-07-11T05:48:02;14.30;99.90
49242;DHT22;35079;52.704;13.814;2022-07-11T05:50:28;14.20;99.90
49242;DHT22;35079;52.704;13.814;2022-07-11T05:52:54;14.30;99.90
49242;DHT22;35079;52.704;13.814;2022-07-11T05:55:23;14.30;99.90
49242;DHT22;35079;52.704;13.814;2022-07-11T05:57:52;14.60;99.90
49242;DHT22;35079;52.704;13.814;2022-07-11T06:31:14;15.70;99.90
49242;DHT22;35079;52.704;13.814;2022-07-11T06:34:09;15.80;99.90
49242;DHT22;35079;52.704;13.814;2022-07-11T06:36:35;15.90;99.90
49242;DHT22;35079;52.704;13.814;2022-07-11T06:39:10;16.20;99.90
49242;DHT22;35079;52.704;13.814;2022-07-11T06:41:36;16.20;99.90
49242;DHT22;35079;52.704;13.814;2022-07-11T06:44:02;16.30;99.90
49242;DHT22;35079;52.704;13.814;2022-07-11T06:46:27;16.50;99.90
49242;DHT22;35079;52.704;13.814;2022-07-11T06:49:00;16.70;99.90
49242;DHT22;35079;52.704;13.814;2022-07-11T06:51:26;16.80;99.90
49242;DHT22;35079;52.704;13.814;2022-07-11T06:53:52;16.70;99.90
49242;DHT22;35079;52.704;13.814;2022-07-11T06:56:17;16.80;99.90
49242;DHT22;35079;52.704;13.814;2022-07-11T06:58:45;16.60;99.90
49242;DHT22;35079;52.704;13.814;2022-07-11T07:01:11;16.70;99.90
49242;DHT22;35079;52.704;13.814;2022-07-11T07:03:37;16.80;99.90
49242;DHT22;35079;52.704;13.814;2022-07-11T07:06:03;16.80;99.90
49242;DHT22;35079;52.704;13.814;2022-07-11T07:08:29;17.00;99.90
49242;DHT22;35079;52.704;13.814;2022-07-11T07:10:56;16.90;99.90
49242;DHT22;35079;52.704;13.814;2022-07-11T07:13:22;17.10;99.90
49242;DHT22;35079;52.704;13.814;2022-07-11T07:15:51;17.30;99.90
49242;DHT22;35079;52.704;13.814;2022-07-11T07:18:18;17.40;99.90
49242;DHT22;35079;52.704;13.814;2022-07-11T07:20:43;17.60;99.90
49242;DHT22;35079;52.704;13.814;2022-07-11T07:23:09;17.80;99.90
49242;DHT22;35079;52.704;13.814;2022-07-11T07:25:35;18.20;99.90
49242;DHT22;35079;52.704;13.814;2022-07-11T07:28:00;18.40;99.90
49242;DHT22;35079;52.704;13.814;2022-07-11T07:30:26;18.50;99.90
49242;DHT22;35079;52.704;13.814;2022-07-11T07:32:52;18.90;99.90
49242;DHT22;35079;52.704;13.814;2022-07-11T07:35:17;19.00;99.90
49242;DHT22;35079;52.704;13.814;2022-07-11T07:37:43;19.10;99.90
49242;DHT22;35079;52.704;13.814;2022-07-11T07:40:09;18.80;99.90
49242;DHT22;35079;52.704;13.814;2022-07-11T07:42:34;18.90;99.90
49242;DHT22;35079;52.704;13.814;2022-07-11T07:45:00;18.80;99.90
49242;DHT22;35079;52.704;13.814;2022-07-11T07:47:26;18.90;99.90
49242;DHT22;35079;52.704;13.814;2022-07-11T07:49:59;18.80;99.90
49242;DHT22;35079;52.704;13.814;2022-07-11T07:52:25;18.90;99.90
49242;DHT22;35079;52.704;13.814;2022-07-11T07:54:51;19.00;99.90
49242;DHT22;35079;52.704;13.814;2022-07-11T07:57:17;19.00;99.90
49242;DHT22;35079;52.704;13.814;2022-07-11T07:59:42;19.00;99.90
49242;DHT22;35079;52.704;13.814;2022-07-11T08:02:08;19.10;99.80
49242;DHT22;35079;52.704;13.814;2022-07-11T08:04:34;19.10;99.90
49242;DHT22;35079;52.704;13.814;2022-07-11T08:06:59;19.20;99.90
49242;DHT22;35079;52.704;13.814;2022-07-11T08:09:25;19.20;99.90
49242;DHT22;35079;52.704;13.814;2022-07-11T08:11:51;19.20;99.90
49242;DHT22;35079;52.704;13.814;2022-07-11T08:14:17;19.20;99.90
49242;DHT22;35079;52.704;13.814;2022-07-11T08:16:46;19.20;99.90
49242;DHT22;35079;52.704;13.814;2022-07-11T08:19:13;19.40;99.90
49242;DHT22;35079;52.704;13.814;2022-07-11T08:21:48;19.40;99.90
49242;DHT22;35079;52.704;13.814;2022-07-11T08:24:14;19.70;99.90
49242;DHT22;35079;52.704;13.814;2022-07-11T08:27:09;19.80;99.40
49242;DHT22;35079;52.704;13.814;2022-07-11T08:29:44;19.90;99.40
49242;DHT22;35079;52.704;13.814;2022-07-11T08:35:16;20.10;97.90
49242;DHT22;35079;52.704;13.814;2022-07-11T08:37:42;20.30;96.60
49242;DHT22;35079;52.704;13.814;2022-07-11T08:40:09;20.50;96.50
49242;DHT22;35079;52.704;13.814;2022-07-11T08:42:43;20.60;96.70
49242;DHT22;35079;52.704;13.814;2022-07-11T08:45:16;21.10;94.90
49242;DHT22;35079;52.704;13.814;2022-07-11T08:47:43;21.30;94.50
49242;DHT22;35079;52.704;13.814;2022-07-11T08:50:11;21.40;93.50
49242;DHT22;35079;52.704;13.814;2022-07-11T08:52:38;21.40;93.30
49242;DHT22;35079;52.704;13.814;2022-07-11T08:55:04;21.40;92.80
49242;DHT22;35079;52.704;13.814;2022-07-11T08:57:36;21.40;93.60
49242;DHT22;35079;52.704;13.814;2022-07-11T09:00:04;21.60;91.40
49242;DHT22;35079;52.704;13.814;2022-07-11T09:02:32;21.90;91.90
49242;DHT22;35079;52.704;13.814;2022-07-11T09:04:59;22.00;91.20
49242;DHT22;35079;52.704;13.814;2022-07-11T09:07:25;22.20;90.00
49242;DHT22;35079;52.704;13.814;2022-07-11T09:09:52;21.90;89.20
49242;DHT22;35079;52.704;13.814;2022-07-11T09:12:17;21.90;90.50
49242;DHT22;35079;52.704;13.814;2022-07-11T09:14:48;21.60;91.60
49242;DHT22;35079;52.704;13.814;2022-07-11T09:17:14;21.30;91.60
49242;DHT22;35079;52.704;13.814;2022-07-11T09:19:40;21.50;92.10
49242;DHT22;35079;52.704;13.814;2022-07-11T09:22:08;21.90;91.20
49242;DHT22;35079;52.704;13.814;2022-07-11T09:27:48;22.80;91.00
49242;DHT22;35079;52.704;13.814;2022-07-11T09:32:54;23.70;84.70
49242;DHT22;35079;52.704;13.814;2022-07-11T09:35:21;23.80;84.20
49242;DHT22;35079;52.704;13.814;2022-07-11T09:37:46;23.50;83.70
49242;DHT22;35079;52.704;13.814;2022-07-11T09:40:14;23.50;84.90
49242;DHT22;35079;52.704;13.814;2022-07-11T09:45:13;24.90;80.30
49242;DHT22;35079;52.704;13.814;2022-07-11T09:47:44;26.10;74.70
49242;DHT22;35079;52.704;13.814;2022-07-11T09:50:10;26.60;72.30
49242;DHT22;35079;52.704;13.814;2022-07-11T09:52:35;27.10;73.00
49242;DHT22;35079;52.704;13.814;2022-07-11T09:55:02;27.50;67.50
49242;DHT22;35079;52.704;13.814;2022-07-11T09:57:35;27.20;67.00
49242;DHT22;35079;52.704;13.814;2022-07-11T10:00:03;27.50;69.00
49242;DHT22;35079;52.704;13.814;2022-07-11T10:02:29;28.30;68.00
49242;DHT22;35079;52.704;13.814;2022-07-11T10:04:55;28.50;66.30
49242;DHT22;35079;52.704;13.814;2022-07-11T10:07:22;28.10;60.50
49242;DHT22;35079;52.704;13.814;2022-07-11T10:09:48;27.80;58.70
49242;DHT22;35079;52.704;13.814;2022-07-11T10:12:13;27.60;61.00
49242;DHT22;35079;52.704;13.814;2022-07-11T10:14:41;27.10;60.80
49242;DHT22;35079;52.704;13.814;2022-07-11T10:20:18;25.10;64.10
49242;DHT22;35079;52.704;13.814;2022-07-11T10:25:42;24.90;69.80
49242;DHT22;35079;52.704;13.814;2022-07-11T10:28:22;26.30;64.80
49242;DHT22;35079;52.704;13.814;2022-07-11T10:30:52;27.00;62.80
49242;DHT22;35079;52.704;13.814;2022-07-11T10:33:20;26.70;62.30
49242;DHT22;35079;52.704;13.814;2022-07-11T10:35:49;26.30;61.90
49242;DHT22;35079;52.704;13.814;2022-07-11T10:38:19;25.80;65.30
49242;DHT22;35079;52.704;13.814;2022-07-11T10:40:53;25.70;64.50
49242;DHT22;35079;52.704;13.814;2022-07-11T10:46:00;25.20;63.50
49242;DHT22;35079;52.704;13.814;2022-07-11T10:48:28;24.40;63.50
49242;DHT22;35079;52.704;13.814;2022-07-11T10:51:16;24.20;65.00
49242;DHT22;35079;52.704;13.814;2022-07-11T10:53:48;23.80;65.00
49242;DHT22;35079;52.704;13.814;2022-07-11T11:01:27;23.30;65.00
49242;DHT22;35079;52.704;13.814;2022-07-11T11:06:57;25.50;66.00
49242;DHT22;35079;52.704;13.814;2022-07-11T11:09:39;26.60;63.40
49242;DHT22;35079;52.704;13.814;2022-07-11T11:12:04;27.40;62.40
49242;DHT22;35079;52.704;13.814;2022-07-11T11:14:30;27.80;55.90
49242;DHT22;35079;52.704;13.814;2022-07-11T11:17:35;28.30;58.40
49242;DHT22;35079;52.704;13.814;2022-07-11T11:20:02;29.00;57.10
49242;DHT22;35079;52.704;13.814;2022-07-11T11:22:28;29.30;53.40
49242;DHT22;35079;52.704;13.814;2022-07-11T11:24:56;29.20;55.00
49242;DHT22;35079;52.704;13.814;2022-07-11T11:27:24;29.00;54.10
49242;DHT22;35079;52.704;13.814;2022-07-11T11:29:51;28.10;56.80
49242;DHT22;35079;52.704;13.814;2022-07-11T11:32:18;27.20;55.70
49242;DHT22;35079;52.704;13.814;2022-07-11T11:34:44;27.80;54.90
49242;DHT22;35079;52.704;13.814;2022-07-11T11:37:10;28.20;56.80
49242;DHT22;35079;52.704;13.814;2022-07-11T11:39:38;28.50;54.00
49242;DHT22;35079;52.704;13.814;2022-07-11T11:42:16;29.00;56.60
49242;DHT22;35079;52.704;13.814;2022-07-11T11:45:02;29.50;50.20
49242;DHT22;35079;52.704;13.814;2022-07-11T11:47:29;29.20;52.70
49242;DHT22;35079;52.704;13.814;2022-07-11T11:49:55;28.30;51.90
49242;DHT22;35079;52.704;13.814;2022-07-11T11:52:21;27.10;52.90
49242;DHT22;35079;52.704;13.814;2022-07-11T11:54:53;26.70;55.80
49242;DHT22;35079;52.704;13.814;2022-07-11T11:57:21;26.90;54.60
49242;DHT22;35079;52.704;13.814;2022-07-11T11:59:48;27.50;54.20
49242;DHT22;35079;52.704;13.814;2022-07-11T12:02:21;28.40;54.30
49242;DHT22;35079;52.704;13.814;2022-07-11T12:04:46;28.70;51.20
49242;DHT22;35079;52.704;13.814;2022-07-11T12:07:12;28.10;53.50
49242;DHT22;35079;52.704;13.814;2022-07-11T12:09:37;27.20;54.70
49242;DHT22;35079;52.704;13.814;2022-07-11T12:12:17;26.60;55.20
49242;DHT22;35079;52.704;13.814;2022-07-11T12:15:02;25.30;56.00
49242;DHT22;35079;52.704;13.814;2022-07-11T12:17:28;24.80;57.00
49242;DHT22;35079;52.704;13.814;2022-07-11T12:19:55;25.00;57.50
49242;DHT22;35079;52.704;13.814;2022-07-11T12:22:21;25.20;57.40
49242;DHT22;35079;52.704;13.814;2022-07-11T12:24:51;25.50;59.10
49242;DHT22;35079;52.704;13.814;2022-07-11T12:27:24;26.50;57.70
49242;DHT22;35079;52.704;13.814;2022-07-11T12:29:51;26.70;54.80
49242;DHT22;35079;52.704;13.814;2022-07-11T12:32:18;27.10;55.70
49242;DHT22;35079;52.704;13.814;2022-07-11T12:34:45;27.30;54.80
49242;DHT22;35079;52.704;13.814;2022-07-11T12:37:14;27.70;52.70
49242;DHT22;35079;52.704;13.814;2022-07-11T12:39:47;27.50;55.30
49242;DHT22;35079;52.704;13.814;2022-07-11T12:42:27;27.50;54.50
49242;DHT22;35079;52.704;13.814;2022-07-11T12:44:59;27.30;53.00
49242;DHT22;35079;52.704;13.814;2022-07-11T12:47:27;26.60;53.70
49242;DHT22;35079;52.704;13.814;2022-07-11T12:49:54;25.90;53.00
49242;DHT22;35079;52.704;13.814;2022-07-11T12:52:20;26.40;53.70
49242;DHT22;35079;52.704;13.814;2022-07-11T12:54:45;26.70;55.50
49242;DHT22;35079;52.704;13.814;2022-07-11T12:57:16;27.10;58.50
49242;DHT22;35079;52.704;13.814;2022-07-11T12:59:45;27.10;54.10
49242;DHT22;35079;52.704;13.814;2022-07-11T13:02:12;27.30;51.80
49242;DHT22;35079;52.704;13.814;2022-07-11T13:04:45;26.60;52.30
49242;DHT22;35079;52.704;13.814;2022-07-11T13:07:29;25.90;52.90
49242;DHT22;35079;52.704;13.814;2022-07-11T13:10:24;25.10;55.90
49242;DHT22;35079;52.704;13.814;2022-07-11T13:12:52;25.20;58.50
49242;DHT22;35079;52.704;13.814;2022-07-11T13:15:18;25.80;59.00
49242;DHT22;35079;52.704;13.814;2022-07-11T13:17:49;26.60;56.20
49242;DHT22;35079;52.704;13.814;2022-07-11T13:20:17;26.80;55.50
49242;DHT22;35079;52.704;13.814;2022-07-11T13:22:44;27.00;54.30
49242;DHT22;35079;52.704;13.814;2022-07-11T13:25:11;26.50;55.10
49242;DHT22;35079;52.704;13.814;2022-07-11T13:27:38;26.00;54.60
49242;DHT22;35079;52.704;13.814;2022-07-11T13:30:05;25.50;55.40
49242;DHT22;35079;52.704;13.814;2022-07-11T13:32:37;25.00;56.10
49242;DHT22;35079;52.704;13.814;2022-07-11T13:35:04;24.70;57.20
49242;DHT22;35079;52.704;13.814;2022-07-11T13:37:30;24.40;57.20
49242;DHT22;35079;52.704;13.814;2022-07-11T13:39:55;24.30;57.90
49242;DHT22;35079;52.704;13.814;2022-07-11T13:42:21;24.00;56.90
49242;DHT22;35079;52.704;13.814;2022-07-11T13:44:46;23.90;57.90
49242;DHT22;35079;52.704;13.814;2022-07-11T13:47:12;24.00;58.90
49242;DHT22;35079;52.704;13.814;2022-07-11T13:49:39;23.90;58.80
49242;DHT22;35079;52.704;13.814;2022-07-11T13:52:05;23.70;60.50
49242;DHT22;35079;52.704;13.814;2022-07-11T13:54:31;23.60;65.10
49242;DHT22;35079;52.704;13.814;2022-07-11T13:56:58;23.40;61.90
49242;DHT22;35079;52.704;13.814;2022-07-11T13:59:23;23.30;62.30
49242;DHT22;35079;52.704;13.814;2022-07-11T14:01:49;23.20;62.30
49242;DHT22;35079;52.704;13.814;2022-07-11T14:04:14;23.10;65.40
49242;DHT22;35079;52.704;13.814;2022-07-11T14:06:40;23.20;63.50
49242;DHT22;35079;52.704;13.814;2022-07-11T14:09:06;23.20;62.40
49242;DHT22;35079;52.704;13.814;2022-07-11T14:11:32;23.20;61.30
49242;DHT22;35079;52.704;13.814;2022-07-11T14:13:58;23.20;60.10
49242;DHT22;35079;52.704;13.814;2022-07-11T14:16:23;23.20;61.90
49242;DHT22;35079;52.704;13.814;2022-07-11T14:18:50;23.10;65.30
49242;DHT22;35079;52.704;13.814;2022-07-11T14:21:16;22.90;65.10
49242;DHT22;35079;52.704;13.814;2022-07-11T14:23:42;22.90;64.10
49242;DHT22;35079;52.704;13.814;2022-07-11T14:26:08;22.90;66.20
49242;DHT22;35079;52.704;13.814;2022-07-11T14:28:35;23.00;66.10
49242;DHT22;35079;52.704;13.814;2022-07-11T14:31:01;23.10;66.20
49242;DHT22;35079;52.704;13.814;2022-07-11T14:33:27;23.20;65.50
49242;DHT22;35079;52.704;13.814;2022-07-11T14:35:53;23.30;65.60
49242;DHT22;35079;52.704;13.814;2022-07-11T14:38:18;23.20;65.10
49242;DHT22;35079;52.704;13.814;2022-07-11T14:40:44;23.40;64.50
49242;DHT22;35079;52.704;13.814;2022-07-11T14:43:10;23.40;64.30
49242;DHT22;35079;52.704;13.814;2022-07-11T14:45:35;24.10;65.40
49242;DHT22;35079;52.704;13.814;2022-07-11T14:48:01;25.00;60.80
49242;DHT22;35079;52.704;13.814;2022-07-11T14:50:27;25.80;59.00
49242;DHT22;35079;52.704;13.814;2022-07-11T14:52:53;26.10;57.00
49242;DHT22;35079;52.704;13.814;2022-07-11T14:55:18;26.00;54.60
49242;DHT22;35079;52.704;13.814;2022-07-11T14:57:44;25.90;54.20
49242;DHT22;35079;52.704;13.814;2022-07-11T15:00:10;25.20;57.80
49242;DHT22;35079;52.704;13.814;2022-07-11T15:02:36;24.80;58.20
49242;DHT22;35079;52.704;13.814;2022-07-11T15:05:20;24.40;56.50
49242;DHT22;35079;52.704;13.814;2022-07-11T15:07:46;24.00;59.30
49242;DHT22;35079;52.704;13.814;2022-07-11T15:10:30;23.90;58.70
49242;DHT22;35079;52.704;13.814;2022-07-11T15:13:14;23.80;59.30
49242;DHT22;35079;52.704;13.814;2022-07-11T15:15:40;23.60;59.30
49242;DHT22;35079;52.704;13.814;2022-07-11T15:18:09;23.40;60.80
49242;DHT22;35079;52.704;13.814;2022-07-11T15:20:34;23.40;60.80
49242;DHT22;35079;52.704;13.814;2022-07-11T15:23:00;23.30;62.20
49242;DHT22;35079;52.704;13.814;2022-07-11T15:25:25;23.30;67.50
49242;DHT22;35079;52.704;13.814;2022-07-11T15:27:51;23.20;63.20
49242;DHT22;35079;52.704;13.814;2022-07-11T15:30:17;22.90;62.40
49242;DHT22;35079;52.704;13.814;2022-07-11T15:32:43;22.90;62.80
49242;DHT22;35079;52.704;13.814;2022-07-11T15:35:10;22.60;64.00
49242;DHT22;35079;52.704;13.814;2022-07-11T15:37:35;22.60;65.20
49242;DHT22;35079;52.704;13.814;2022-07-11T15:40:01;22.60;63.70
49242;DHT22;35079;52.704;13.814;2022-07-11T15:42:26;22.80;63.80
49242;DHT22;35079;52.704;13.814;2022-07-11T15:44:52;22.80;63.60
49242;DHT22;35079;52.704;13.814;2022-07-11T15:47:18;22.50;62.50
49242;DHT22;35079;52.704;13.814;2022-07-11T15:49:43;22.80;64.10
49242;DHT22;35079;52.704;13.814;2022-07-11T15:52:09;22.80;66.10
49242;DHT22;35079;52.704;13.814;2022-07-11T15:54:35;22.90;62.70
49242;DHT22;35079;52.704;13.814;2022-07-11T15:57:01;22.80;62.40
49242;DHT22;35079;52.704;13.814;2022-07-11T15:59:27;22.80;62.60
49242;DHT22;35079;52.704;13.814;2022-07-11T16:01:54;22.80;63.20
49242;DHT22;35079;52.704;13.814;2022-07-11T16:04:20;22.90;63.80
49242;DHT22;35079;52.704;13.814;2022-07-11T16:06:48;22.80;62.20
49242;DHT22;35079;52.704;13.814;2022-07-11T16:09:14;22.60;63.90
49242;DHT22;35079;52.704;13.814;2022-07-11T16:11:42;22.70;63.70
49242;DHT22;35079;52.704;13.814;2022-07-11T16:14:07;22.70;62.80
49242;DHT22;35079;52.704;13.814;2022-07-11T16:16:33;22.50;66.50